createdAt,value
2023-01-01T00:01:44.161Z,-13.04
2023-01-01T00:06:47.895Z,-12.99
2023-01-01T00:11:55.250Z,-13.30
2023-01-01T00:16:59.979Z,-12.99
2023-01-01T00:22:27.880Z,-13.01
2023-01-01T00:27:30.802Z,-12.94
2023-01-01T00:32:36.245Z,-12.88
2023-01-01T00:37:46.417Z,-12.85
2023-01-01T00:42:54.086Z,-12.82
2023-01-01T00:47:57.763Z,-12.79
2023-01-01T00:53:05.037Z,-12.80
2023-01-01T00:58:10.875Z,-12.84
2023-01-01T01:03:29.041Z,-12.81
2023-01-01T01:08:36.566Z,-12.78
2023-01-01T01:13:42.543Z,-12.77
2023-01-01T01:18:47.938Z,-12.82
2023-01-01T01:23:55.032Z,-12.79
2023-01-01T01:29:00.096Z,-12.86
2023-01-01T01:34:06.112Z,-12.82
2023-01-01T01:39:14.071Z,-12.71
2023-01-01T01:44:52.427Z,-12.68
2023-01-01T01:50:06.927Z,-12.64
2023-01-01T01:55:13.501Z,-12.64
2023-01-01T02:00:18.197Z,-12.73
2023-01-01T02:05:23.946Z,-12.67
2023-01-01T02:10:30.552Z,-12.67
2023-01-01T02:16:20.973Z,-12.74
2023-01-01T02:21:50.278Z,-12.78
2023-01-01T02:27:23.088Z,-12.84
2023-01-01T02:32:30.543Z,-12.90
2023-01-01T02:37:37.531Z,-12.99
2023-01-01T02:42:43.765Z,-13.18
2023-01-01T02:47:47.523Z,-13.30
2023-01-01T02:53:10.959Z,-12.98
2023-01-01T02:58:44.743Z,-12.98
2023-01-01T03:04:26.885Z,-13.01
2023-01-01T03:09:45.247Z,-12.99
2023-01-01T03:15:00.487Z,-12.98
2023-01-01T03:20:14.557Z,-12.96
2023-01-01T03:25:27.260Z,-12.87
2023-01-01T03:30:34.525Z,-12.77
2023-01-01T03:35:38.406Z,-12.70
2023-01-01T03:40:46.402Z,-12.58
2023-01-01T03:45:54.275Z,-12.50
2023-01-01T03:51:15.068Z,-12.44
2023-01-01T03:56:40.299Z,-12.39
2023-01-01T04:01:54.533Z,-12.32
2023-01-01T04:07:14.329Z,-12.32
2023-01-01T04:12:20.963Z,-12.15
2023-01-01T04:17:26.573Z,-12.05
2023-01-01T04:22:30.418Z,-11.94
2023-01-01T04:27:36.756Z,-11.89
2023-01-01T04:32:42.904Z,-11.69
2023-01-01T04:37:49.432Z,-11.53
2023-01-01T04:42:57.099Z,-11.39
2023-01-01T04:48:08.306Z,-11.32
2023-01-01T04:53:12.882Z,-11.17
2023-01-01T04:58:18.528Z,-11.10
2023-01-01T05:03:24.495Z,-10.94
2023-01-01T05:08:30.787Z,-10.87
2023-01-01T05:13:37.235Z,-10.70
2023-01-01T05:18:44.572Z,-10.72
2023-01-01T05:24:01.297Z,-10.46
2023-01-01T05:29:16.054Z,-10.33
2023-01-01T05:34:22.140Z,-10.20
2023-01-01T05:39:26.300Z,-10.06
2023-01-01T05:44:30.915Z,-9.97
2023-01-01T05:49:37.283Z,-9.87
2023-01-01T05:54:47.586Z,-9.80
2023-01-01T05:59:51.399Z,-9.70
2023-01-01T06:04:56.349Z,-9.62
2023-01-01T06:10:01.152Z,-9.47
2023-01-01T06:15:06.963Z,-9.38
2023-01-01T06:20:12.872Z,-9.26
2023-01-01T06:25:18.229Z,-9.24
2023-01-01T06:30:24.524Z,-9.12
2023-01-01T06:35:30.401Z,-8.96
2023-01-01T06:40:39.145Z,-8.91
2023-01-01T06:45:43.530Z,-8.93
2023-01-01T06:50:48.178Z,-8.73
2023-01-01T06:55:57.135Z,-8.60
2023-01-01T07:01:09.813Z,-8.37
2023-01-01T07:06:17.130Z,-8.25
2023-01-01T07:11:24.646Z,-8.14
2023-01-01T07:16:29.028Z,-8.04
2023-01-01T07:21:34.405Z,-7.93
2023-01-01T07:26:41.914Z,-7.90
2023-01-01T07:31:47.531Z,-7.70
2023-01-01T07:36:57.509Z,-7.61
2023-01-01T07:42:10.581Z,-7.57
2023-01-01T07:47:28.240Z,-7.52
2023-01-01T07:52:32.042Z,-7.49
2023-01-01T07:57:35.938Z,-7.61
2023-01-01T08:02:40.166Z,-7.33
2023-01-01T08:07:49.886Z,-7.28
2023-01-01T08:12:59.609Z,-7.23
2023-01-01T08:18:07.916Z,-7.17
2023-01-01T08:23:16.159Z,-7.09
2023-01-01T08:28:23.888Z,-7.08
2023-01-01T08:33:32.645Z,-6.91
2023-01-01T08:38:42.366Z,-6.83
2023-01-01T08:43:49.237Z,-6.84
2023-01-01T08:48:54.405Z,-6.90
2023-01-01T08:53:58.999Z,-6.69
2023-01-01T08:59:07.345Z,-6.64
2023-01-01T09:04:15.928Z,-6.63
2023-01-01T09:09:25.716Z,-6.54
2023-01-01T09:14:36.334Z,-6.54
2023-01-01T09:19:45.104Z,-6.47
2023-01-01T09:24:48.891Z,-6.40
2023-01-01T09:29:53.583Z,-6.34
2023-01-01T09:34:58.648Z,-6.28
2023-01-01T09:40:06.377Z,-6.24
2023-01-01T09:45:30.543Z,-6.26
2023-01-01T09:50:41.621Z,-6.22
2023-01-01T09:55:59.833Z,-6.22
2023-01-01T10:01:41.673Z,-6.09
2023-01-01T10:06:58.328Z,-6.09
2023-01-01T10:12:13.422Z,-6.05
2023-01-01T10:17:40.104Z,-6.02
2023-01-01T10:22:57.274Z,-6.00
2023-01-01T10:28:32.807Z,-5.97
2023-01-01T10:33:38.854Z,-6.00
2023-01-01T10:38:52.779Z,-5.98
2023-01-01T10:44:00.720Z,-5.90
2023-01-01T10:49:16.950Z,-5.89
2023-01-01T10:54:47.135Z,-5.89
2023-01-01T10:59:54.606Z,-5.91
2023-01-01T11:05:32.141Z,-5.87
2023-01-01T11:10:40.196Z,-5.89
2023-01-01T11:15:47.041Z,-5.85
2023-01-01T11:20:59.864Z,-5.81
2023-01-01T11:26:22.425Z,-5.77
2023-01-01T11:31:31.532Z,-5.69
2023-01-01T11:36:36.432Z,-5.61
2023-01-01T11:41:50.580Z,-5.55
2023-01-01T11:46:56.765Z,-5.54
2023-01-01T11:52:21.995Z,-5.72
2023-01-01T11:57:30.536Z,-5.46
2023-01-01T12:02:45.176Z,-5.43
2023-01-01T12:07:55.857Z,-5.44
2023-01-01T12:13:07.224Z,-5.46
2023-01-01T12:18:48.722Z,-5.46
2023-01-01T12:23:54.077Z,-5.42
2023-01-01T12:29:39.345Z,-5.38
2023-01-01T12:35:02.145Z,-5.34
2023-01-01T12:40:40.958Z,-5.32
2023-01-01T12:46:11.834Z,-5.28
2023-01-01T12:51:35.651Z,-5.22
2023-01-01T12:57:20.245Z,-5.19
2023-01-01T13:02:31.719Z,-5.18
2023-01-01T13:07:46.249Z,-5.07
2023-01-01T13:12:51.299Z,-5.13
2023-01-01T13:17:58.324Z,-5.04
2023-01-01T13:23:05.416Z,-5.02
2023-01-01T13:28:17.629Z,-4.92
2023-01-01T13:33:34.313Z,-4.85
2023-01-01T13:38:57.621Z,-4.83
2023-01-01T13:44:02.238Z,-4.84
2023-01-01T13:49:40.776Z,-4.83
2023-01-01T13:55:40.667Z,-4.74
2023-01-01T14:01:03.238Z,-4.65
2023-01-01T14:06:44.509Z,-4.61
2023-01-01T14:11:50.152Z,-4.69
2023-01-01T14:17:02.579Z,-4.61
2023-01-01T14:22:14.959Z,-4.54
2023-01-01T14:27:23.648Z,-4.42
2023-01-01T14:32:39.758Z,-4.35
2023-01-01T14:37:46.615Z,-4.35
2023-01-01T14:43:07.341Z,-4.29
2023-01-01T14:48:21.889Z,-4.28
2023-01-01T14:53:34.959Z,-4.21
2023-01-01T14:58:42.370Z,-4.21
2023-01-01T15:04:02.498Z,-4.19
2023-01-01T15:09:09.759Z,-4.17
2023-01-01T15:14:33.903Z,-4.24
2023-01-01T15:19:42.446Z,-4.39
2023-01-01T15:24:46.956Z,-4.48
2023-01-01T15:29:58.719Z,-4.57
2023-01-01T15:35:32.461Z,-4.65
2023-01-01T15:40:39.451Z,-4.73
2023-01-01T15:45:58.641Z,-4.78
2023-01-01T15:51:25.652Z,-4.87
2023-01-01T15:56:41.486Z,-4.95
2023-01-01T16:01:47.310Z,-5.02
2023-01-01T16:06:56.416Z,-5.17
2023-01-01T16:12:01.079Z,-5.34
2023-01-01T16:17:05.105Z,-5.43
2023-01-01T16:22:13.571Z,-5.50
2023-01-01T16:27:21.337Z,-5.62
2023-01-01T16:32:26.800Z,-5.82
2023-01-01T16:37:30.612Z,-5.90
2023-01-01T16:42:36.785Z,-6.03
2023-01-01T16:47:46.436Z,-6.18
2023-01-01T16:52:51.913Z,-6.22
2023-01-01T16:58:20.953Z,-6.33
2023-01-01T17:03:20.593Z,-6.37
2023-01-01T17:08:26.776Z,-6.49
2023-01-01T17:13:40.951Z,-6.50
2023-01-01T17:24:19.836Z,-6.74
2023-01-01T17:29:25.655Z,-6.81
2023-01-01T17:34:32.988Z,-6.91
2023-01-01T17:39:37.122Z,-7.09
2023-01-01T17:44:50.688Z,-7.27
2023-01-01T17:49:56.240Z,-7.53
2023-01-01T17:55:02.296Z,-7.73
2023-01-01T18:00:11.520Z,-7.91
2023-01-01T18:05:23.101Z,-8.20
2023-01-01T18:10:30.499Z,-8.28
2023-01-01T18:15:40.014Z,-8.39
2023-01-01T18:20:48.431Z,-8.53
2023-01-01T18:25:56.518Z,-8.61
2023-01-01T18:31:18.576Z,-8.77
2023-01-01T18:36:29.543Z,-8.74
2023-01-01T18:41:55.896Z,-8.71
2023-01-01T18:47:16.036Z,-8.67
2023-01-01T18:52:26.394Z,-8.69
2023-01-01T18:57:32.300Z,-8.76
2023-01-01T19:02:45.326Z,-8.79
2023-01-01T19:08:05.486Z,-8.85
2023-01-01T19:13:23.773Z,-8.87
2023-01-01T19:18:37.463Z,-8.94
2023-01-01T19:23:44.147Z,-8.96
2023-01-01T19:28:53.419Z,-9.05
2023-01-01T19:33:59.661Z,-8.99
2023-01-01T19:39:11.336Z,-9.16
2023-01-01T19:44:24.593Z,-9.11
2023-01-01T19:49:31.831Z,-9.22
2023-01-01T19:54:38.350Z,-9.26
2023-01-01T19:59:43.314Z,-9.25
2023-01-01T20:04:48.243Z,-9.36
2023-01-01T20:09:52.092Z,-9.34
2023-01-01T20:14:57.040Z,-9.43
2023-01-01T20:20:01.772Z,-9.46
2023-01-01T20:25:07.993Z,-9.54
2023-01-01T20:30:11.923Z,-9.61
2023-01-01T20:35:16.119Z,-9.69
2023-01-01T20:40:21.443Z,-9.75
2023-01-01T20:45:27.350Z,-9.88
2023-01-01T20:50:32.319Z,-9.88
2023-01-01T20:55:39.372Z,-9.93
2023-01-01T21:00:43.701Z,-9.98
2023-01-01T21:05:51.348Z,-10.04
2023-01-01T21:10:56.609Z,-10.05
2023-01-01T21:16:23.558Z,-10.05
2023-01-01T21:21:55.667Z,-10.11
2023-01-01T21:27:16.243Z,-10.18
2023-01-01T21:32:37.034Z,-10.21
2023-01-01T21:37:50.431Z,-10.23
2023-01-01T21:43:13.462Z,-10.27
2023-01-01T21:48:30.246Z,-10.32
2023-01-01T21:53:39.125Z,-10.36
2023-01-01T21:59:07.733Z,-10.40
2023-01-01T22:04:11.520Z,-10.47
2023-01-01T22:09:24.582Z,-10.51
2023-01-01T22:14:44.095Z,-10.54
2023-01-01T22:19:54.297Z,-10.61
2023-01-01T22:25:08.568Z,-10.67
2023-01-01T22:30:18.568Z,-10.69
2023-01-01T22:35:29.879Z,-10.74
2023-01-01T22:40:39.442Z,-10.84
2023-01-01T22:45:49.599Z,-10.91
2023-01-01T22:50:57.035Z,-10.95
2023-01-01T22:56:00.839Z,-11.04
2023-01-01T23:01:05.785Z,-11.14
2023-01-01T23:06:10.321Z,-11.13
2023-01-01T23:11:19.403Z,-11.13
2023-01-01T23:16:26.510Z,-11.11
2023-01-01T23:21:31.969Z,-11.13
2023-01-01T23:26:36.779Z,-11.20
2023-01-01T23:31:43.099Z,-11.17
2023-01-01T23:36:49.887Z,-11.21
2023-01-01T23:41:57.862Z,-11.25
2023-01-01T23:47:02.504Z,-11.26
2023-01-01T23:52:07.771Z,-11.28
2023-01-01T23:57:11.539Z,-11.29
